createdAt,value
2018-06-22T00:02:41.304Z,1.23
2018-06-22T00:07:25.664Z,1.00
2018-06-22T00:12:10.004Z,1.00
2018-06-22T00:16:54.512Z,0.93
2018-06-22T00:21:38.855Z,1.03
2018-06-22T00:26:23.133Z,1.00
2018-06-22T00:31:07.509Z,1.50
2018-06-22T00:35:51.921Z,1.20
2018-06-22T00:40:36.316Z,1.00
2018-06-22T00:45:20.848Z,1.00
2018-06-22T00:50:05.177Z,1.17
2018-06-22T00:54:49.544Z,1.17
2018-06-22T00:59:33.917Z,1.13
2018-06-22T01:04:18.273Z,1.20
2018-06-22T01:09:02.650Z,1.07
2018-06-22T01:13:47.013Z,1.10
2018-06-22T01:18:31.427Z,1.13
2018-06-22T01:23:15.820Z,1.00
2018-06-22T01:28:00.135Z,1.20
2018-06-22T01:32:44.420Z,1.13
2018-06-22T01:37:29.008Z,1.10
2018-06-22T01:42:13.421Z,1.10
2018-06-22T01:46:57.801Z,1.10
2018-06-22T01:51:42.292Z,1.23
2018-06-22T01:56:26.644Z,1.10
2018-06-22T02:01:11.014Z,1.50
2018-06-22T02:05:55.405Z,0.93
2018-06-22T02:10:39.762Z,1.40
2018-06-22T02:15:24.172Z,0.90
2018-06-22T02:20:08.618Z,1.20
2018-06-22T02:24:52.642Z,1.00
2018-06-22T02:29:36.866Z,1.37
2018-06-22T02:34:21.187Z,1.20
2018-06-22T02:39:08.424Z,1.17
2018-06-22T02:43:52.803Z,1.00
2018-06-22T02:48:37.179Z,1.67
2018-06-22T02:53:21.607Z,1.50
2018-06-22T02:58:06.025Z,1.10
2018-06-22T03:02:50.471Z,1.00
2018-06-22T03:07:34.884Z,1.13
2018-06-22T03:12:19.268Z,1.10
2018-06-22T03:17:03.602Z,1.33
2018-06-22T03:21:47.945Z,1.60
2018-06-22T03:26:32.292Z,1.60
2018-06-22T03:31:16.881Z,1.00
2018-06-22T03:36:01.222Z,1.10
2018-06-22T03:40:45.573Z,1.07
2018-06-22T03:45:29.903Z,1.40
2018-06-22T03:50:14.352Z,0.93
2018-06-22T03:54:58.748Z,1.13
2018-06-22T03:59:43.176Z,0.77
2018-06-22T04:04:27.564Z,1.20
2018-06-22T04:09:11.992Z,0.90
2018-06-22T04:13:56.527Z,0.90
2018-06-22T04:18:40.884Z,1.10
2018-06-22T04:23:25.383Z,1.20
2018-06-22T04:28:09.715Z,1.50
2018-06-22T04:32:54.038Z,1.20
2018-06-22T04:37:38.831Z,1.17
2018-06-22T04:42:23.743Z,1.10
2018-06-22T04:47:08.297Z,1.60
2018-06-22T04:51:52.794Z,1.57
2018-06-22T04:56:37.393Z,1.10
2018-06-22T05:01:22.084Z,1.00
2018-06-22T05:06:06.622Z,1.20
2018-06-22T05:10:51.088Z,1.70
2018-06-22T05:15:35.601Z,1.63
2018-06-22T05:20:20.201Z,1.40
2018-06-22T05:25:04.680Z,1.30
2018-06-22T05:29:49.126Z,1.30
2018-06-22T05:34:33.553Z,1.30
2018-06-22T05:39:18.962Z,1.47
2018-06-22T05:44:03.391Z,1.40
2018-06-22T05:48:48.442Z,1.13
2018-06-22T05:53:32.561Z,1.20
2018-06-22T05:58:16.796Z,1.30
2018-06-22T06:03:01.385Z,1.17
2018-06-22T06:07:45.769Z,0.93
2018-06-22T06:12:30.250Z,1.57
2018-06-22T06:17:14.788Z,1.37
2018-06-22T06:21:59.227Z,1.30
2018-06-22T06:26:43.653Z,1.27
2018-06-22T06:31:28.349Z,1.53
2018-06-22T06:36:14.946Z,1.03
2018-06-22T06:40:59.587Z,0.93
2018-06-22T06:45:44.086Z,1.27
2018-06-22T06:50:28.470Z,1.10
2018-06-22T06:55:12.809Z,1.23
2018-06-22T06:59:57.085Z,1.00
2018-06-22T07:04:41.551Z,1.73
2018-06-22T07:09:26.171Z,0.90
2018-06-22T07:14:10.612Z,0.90
2018-06-22T07:18:55.071Z,1.00
2018-06-22T07:23:39.457Z,0.83
2018-06-22T07:28:23.809Z,0.90
2018-06-22T07:33:08.219Z,1.23
2018-06-22T07:37:52.683Z,1.10
2018-06-22T07:42:37.078Z,1.13
2018-06-22T07:47:21.500Z,1.50
2018-06-22T07:52:05.842Z,1.00
2018-06-22T07:56:50.310Z,1.00
2018-06-22T08:01:34.651Z,1.03
2018-06-22T08:06:19.073Z,1.40
2018-06-22T08:11:03.431Z,1.47
2018-06-22T08:15:47.948Z,1.20
2018-06-22T08:20:32.306Z,1.50
2018-06-22T08:25:16.826Z,1.07
2018-06-22T08:30:01.286Z,1.20
2018-06-22T08:34:45.912Z,0.90
2018-06-22T08:39:30.376Z,0.97
2018-06-22T08:44:14.783Z,1.13
2018-06-22T08:48:59.277Z,1.00
2018-06-22T08:53:43.654Z,1.40
2018-06-22T08:58:28.130Z,1.40
2018-06-22T09:03:12.524Z,1.67
2018-06-22T09:07:56.859Z,1.20
2018-06-22T09:12:41.187Z,1.10
2018-06-22T09:17:25.542Z,1.20
2018-06-22T09:22:09.870Z,1.30
2018-06-22T09:26:54.288Z,1.23
2018-06-22T09:31:38.745Z,1.37
2018-06-22T09:36:23.097Z,1.87
2018-06-22T09:41:07.426Z,1.00
2018-06-22T09:45:51.774Z,1.27
2018-06-22T09:50:36.325Z,1.00
2018-06-22T09:55:20.681Z,0.77
2018-06-22T10:00:05.129Z,1.30
2018-06-22T10:04:49.913Z,1.27
2018-06-22T10:09:34.317Z,1.00
2018-06-22T10:14:18.782Z,1.90
2018-06-22T10:19:03.306Z,1.30
2018-06-22T10:23:47.685Z,1.30
2018-06-22T10:28:32.091Z,1.40
2018-06-22T10:33:17.063Z,1.53
2018-06-22T10:38:01.574Z,0.90
2018-06-22T10:42:46.035Z,1.40
2018-06-22T10:47:30.441Z,1.10
2018-06-22T10:52:14.855Z,1.00
2018-06-22T10:56:59.569Z,1.27
2018-06-22T11:01:43.726Z,1.20
2018-06-22T11:06:28.815Z,0.90
2018-06-22T11:11:13.250Z,0.93
2018-06-22T11:15:57.570Z,0.80
2018-06-22T11:20:42.001Z,1.03
2018-06-22T11:25:26.383Z,1.00
2018-06-22T11:30:30.314Z,1.20
2018-06-22T11:35:15.861Z,1.03
2018-06-22T11:40:00.222Z,1.00
2018-06-22T11:44:44.896Z,0.90
2018-06-22T11:49:29.379Z,0.80
2018-06-22T11:54:13.848Z,0.87
2018-06-22T11:58:58.324Z,0.90
2018-06-22T12:03:43.136Z,0.40
2018-06-22T12:08:27.745Z,0.60
2018-06-22T12:13:12.194Z,0.70
2018-06-22T12:17:56.684Z,0.60
2018-06-22T12:22:41.277Z,0.90
2018-06-22T12:27:25.999Z,0.93
2018-06-22T12:32:12.560Z,1.10
2018-06-22T12:36:59.799Z,1.17
2018-06-22T12:41:51.804Z,1.20
2018-06-22T12:46:36.547Z,1.30
2018-06-22T12:51:21.183Z,1.20
2018-06-22T12:56:06.112Z,1.40
2018-06-22T13:00:50.555Z,1.23
2018-06-22T13:05:34.934Z,1.33
2018-06-22T13:10:19.384Z,0.90
2018-06-22T13:15:04.981Z,1.00
2018-06-22T13:19:49.476Z,1.20
2018-06-22T13:24:33.960Z,1.30
2018-06-22T13:29:18.734Z,1.17
2018-06-22T13:34:03.151Z,1.00
2018-06-22T13:38:47.533Z,0.87
2018-06-22T13:43:32.054Z,0.80
2018-06-22T13:48:16.500Z,0.83
2018-06-22T13:53:01.044Z,0.60
2018-06-22T13:57:45.540Z,0.57
2018-06-22T14:02:31.027Z,0.60
2018-06-22T14:07:15.503Z,0.60
2018-06-22T14:12:00.050Z,0.60
2018-06-22T14:16:44.455Z,0.80
2018-06-22T14:21:28.879Z,0.83
2018-06-22T14:26:13.676Z,0.60
2018-06-22T14:30:58.195Z,0.50
2018-06-22T14:35:42.525Z,0.57
2018-06-22T14:40:26.639Z,0.70
2018-06-22T14:45:10.939Z,0.60
2018-06-22T14:49:56.424Z,0.57
2018-06-22T14:54:46.054Z,0.60
2018-06-22T15:01:40.915Z,0.73
2018-06-22T15:06:30.831Z,0.60
2018-06-22T15:11:15.440Z,0.70
2018-06-22T15:16:01.140Z,1.90
2018-06-22T15:20:52.108Z,1.50
2018-06-22T15:25:37.481Z,1.07
2018-06-22T15:30:21.913Z,1.10
2018-06-22T15:37:14.926Z,1.00
2018-06-22T15:42:04.506Z,0.80
2018-06-22T15:46:54.194Z,0.50
2018-06-22T15:51:43.909Z,0.50
2018-06-22T15:56:28.347Z,0.40
2018-06-22T16:01:12.852Z,0.30
2018-06-22T16:05:57.336Z,0.40
2018-06-22T16:10:41.859Z,0.40
2018-06-22T16:15:31.572Z,0.50
2018-06-22T16:20:21.055Z,0.70
2018-06-22T16:25:10.577Z,0.50
2018-06-22T16:29:55.085Z,0.40
2018-06-22T16:34:39.594Z,0.40
2018-06-22T16:39:24.012Z,0.60
2018-06-22T16:44:08.576Z,0.50
2018-06-22T16:48:53.017Z,0.80
2018-06-22T16:53:37.437Z,0.63
2018-06-22T16:58:27.030Z,1.00
2018-06-22T17:03:11.667Z,0.80
2018-06-22T17:10:09.140Z,0.80
2018-06-22T17:14:58.695Z,0.97
2018-06-22T17:19:43.702Z,1.00
2018-06-22T17:24:29.300Z,1.40
2018-06-22T17:29:14.224Z,0.70
2018-06-22T17:33:59.032Z,0.87
2018-06-22T17:38:44.642Z,1.83
2018-06-22T17:43:29.376Z,0.70
2018-06-22T17:48:25.254Z,0.67
2018-06-22T17:53:09.723Z,0.60
2018-06-22T17:57:54.171Z,0.83
2018-06-22T18:02:43.862Z,1.17
2018-06-22T18:07:33.441Z,1.10
2018-06-22T18:12:23.144Z,1.30
2018-06-22T18:17:07.638Z,1.03
2018-06-22T18:21:51.879Z,1.00
2018-06-22T18:26:40.350Z,1.37
2018-06-22T18:31:25.157Z,1.07
2018-06-22T18:36:10.268Z,1.40
2018-06-22T18:40:55.728Z,1.10
2018-06-22T18:45:43.204Z,1.10
2018-06-22T18:50:28.119Z,1.13
2018-06-22T18:55:21.282Z,1.30
2018-06-22T19:00:12.071Z,0.93
2018-06-22T19:04:58.520Z,1.57
2018-06-22T19:09:43.189Z,1.50
2018-06-22T19:14:28.210Z,1.60
2018-06-22T19:19:17.913Z,1.50
2018-06-22T19:24:02.804Z,1.50
2018-06-22T19:29:03.224Z,1.30
2018-06-22T19:33:47.877Z,1.00
2018-06-22T19:38:32.477Z,1.30
2018-06-22T19:43:26.880Z,1.40
2018-06-22T19:48:18.557Z,1.77
2018-06-22T19:53:08.398Z,1.90
2018-06-22T19:57:52.870Z,1.67
2018-06-22T20:02:37.426Z,1.80
2018-06-22T20:07:22.414Z,1.67
2018-06-22T20:12:08.096Z,1.43
2018-06-22T20:16:52.879Z,1.20
2018-06-22T20:26:35.715Z,1.50
2018-06-22T20:31:25.392Z,1.60
2018-06-22T20:36:15.255Z,1.70
2018-06-22T20:41:05.137Z,2.03
2018-06-22T20:45:57.455Z,1.40
2018-06-22T20:50:42.308Z,1.90
2018-06-22T20:55:27.125Z,1.63
2018-06-22T21:00:11.765Z,2.43
2018-06-22T21:04:56.602Z,1.90
2018-06-22T21:09:41.193Z,2.20
2018-06-22T21:14:25.894Z,2.03
2018-06-22T21:19:10.558Z,2.40
2018-06-22T21:23:55.435Z,3.23
2018-06-22T21:28:45.232Z,2.00
2018-06-22T21:33:35.071Z,2.37
2018-06-22T21:38:24.946Z,2.60
2018-06-22T21:43:09.590Z,1.97
2018-06-22T21:47:54.236Z,2.43
2018-06-22T21:52:38.889Z,2.43
2018-06-22T21:57:23.558Z,2.53
2018-06-22T22:02:08.369Z,2.30
2018-06-22T22:06:53.095Z,2.60
2018-06-22T22:11:43.366Z,3.70
2018-06-22T22:16:28.045Z,2.80
2018-06-22T22:21:12.499Z,2.90
2018-06-22T22:25:57.127Z,2.40
2018-06-22T22:30:41.984Z,2.70
2018-06-22T22:35:26.549Z,3.37
2018-06-22T22:40:11.087Z,2.97
2018-06-22T22:44:55.716Z,3.00
2018-06-22T22:49:40.146Z,2.73
2018-06-22T22:54:24.572Z,2.67
2018-06-22T22:59:09.042Z,2.80
2018-06-22T23:03:53.443Z,2.70
2018-06-22T23:08:37.942Z,2.80
2018-06-22T23:13:22.641Z,3.37
2018-06-22T23:18:07.178Z,2.57
2018-06-22T23:23:02.577Z,2.40
2018-06-22T23:27:47.103Z,2.60
2018-06-22T23:32:32.618Z,2.57
2018-06-22T23:37:17.101Z,2.93
2018-06-22T23:42:01.655Z,3.23
2018-06-22T23:46:46.544Z,2.40
2018-06-22T23:51:31.383Z,2.83
2018-06-22T23:56:16.152Z,3.30
